sensor_id;sensor_type;location;lat;lon;timestamp;P1;durP1;ratioP1;P2;durP2;ratioP2
71464;SDS011;59274;49.874;9.154;2023-04-03T00:01:22;8.43;;;3.40;;
71464;SDS011;59274;49.874;9.154;2023-04-03T00:03:48;7.10;;;3.15;;
71464;SDS011;59274;49.874;9.154;2023-04-03T00:06:14;7.13;;;3.10;;
71464;SDS011;59274;49.874;9.154;2023-04-03T00:08:39;6.47;;;2.87;;
71464;SDS011;59274;49.874;9.154;2023-04-03T00:11:05;8.25;;;3.47;;
71464;SDS011;59274;49.874;9.154;2023-04-03T00:13:31;5.23;;;2.63;;
71464;SDS011;59274;49.874;9.154;2023-04-03T00:15:57;6.25;;;2.72;;
71464;SDS011;59274;49.874;9.154;2023-04-03T00:18:23;6.15;;;3.17;;
71464;SDS011;59274;49.874;9.154;2023-04-03T00:20:49;6.82;;;2.90;;
71464;SDS011;59274;49.874;9.154;2023-04-03T00:23:15;6.05;;;2.70;;
71464;SDS011;59274;49.874;9.154;2023-04-03T00:25:41;6.18;;;2.70;;
71464;SDS011;59274;49.874;9.154;2023-04-03T00:28:07;6.27;;;2.80;;
71464;SDS011;59274;49.874;9.154;2023-04-03T00:30:32;7.93;;;3.17;;
71464;SDS011;59274;49.874;9.154;2023-04-03T00:32:58;6.70;;;3.25;;
71464;SDS011;59274;49.874;9.154;2023-04-03T00:35:25;6.47;;;2.72;;
71464;SDS011;59274;49.874;9.154;2023-04-03T00:37:51;8.27;;;2.97;;
71464;SDS011;59274;49.874;9.154;2023-04-03T00:40:18;4.78;;;2.58;;
71464;SDS011;59274;49.874;9.154;2023-04-03T00:42:44;6.40;;;2.63;;
71464;SDS011;59274;49.874;9.154;2023-04-03T00:45:25;6.05;;;2.67;;
71464;SDS011;59274;49.874;9.154;2023-04-03T00:48:11;6.15;;;2.80;;
71464;SDS011;59274;49.874;9.154;2023-04-03T00:50:43;6.82;;;2.90;;
71464;SDS011;59274;49.874;9.154;2023-04-03T00:53:11;5.40;;;2.70;;
71464;SDS011;59274;49.874;9.154;2023-04-03T00:55:39;8.30;;;3.08;;
71464;SDS011;59274;49.874;9.154;2023-04-03T00:58:06;7.20;;;3.40;;
71464;SDS011;59274;49.874;9.154;2023-04-03T01:00:33;6.60;;;2.83;;
71464;SDS011;59274;49.874;9.154;2023-04-03T01:03:00;6.13;;;3.28;;
71464;SDS011;59274;49.874;9.154;2023-04-03T01:05:26;7.53;;;2.87;;
71464;SDS011;59274;49.874;9.154;2023-04-03T01:07:51;6.40;;;3.23;;
71464;SDS011;59274;49.874;9.154;2023-04-03T01:10:18;6.30;;;2.80;;
71464;SDS011;59274;49.874;9.154;2023-04-03T01:12:46;6.25;;;2.70;;
71464;SDS011;59274;49.874;9.154;2023-04-03T01:15:21;5.45;;;2.58;;
71464;SDS011;59274;49.874;9.154;2023-04-03T01:25:32;6.43;;;3.00;;
71464;SDS011;59274;49.874;9.154;2023-04-03T01:27:59;7.03;;;3.15;;
71464;SDS011;59274;49.874;9.154;2023-04-03T01:30:32;6.53;;;3.10;;
71464;SDS011;59274;49.874;9.154;2023-04-03T01:33:00;6.00;;;3.20;;
71464;SDS011;59274;49.874;9.154;2023-04-03T01:35:25;5.47;;;2.73;;
71464;SDS011;59274;49.874;9.154;2023-04-03T01:37:51;7.13;;;3.03;;
71464;SDS011;59274;49.874;9.154;2023-04-03T01:40:16;7.73;;;3.00;;
71464;SDS011;59274;49.874;9.154;2023-04-03T01:42:42;7.30;;;2.90;;
71464;SDS011;59274;49.874;9.154;2023-04-03T01:45:08;6.70;;;3.00;;
71464;SDS011;59274;49.874;9.154;2023-04-03T01:47:34;9.18;;;3.20;;
71464;SDS011;59274;49.874;9.154;2023-04-03T01:49:59;8.77;;;2.90;;
71464;SDS011;59274;49.874;9.154;2023-04-03T01:52:25;7.33;;;3.10;;
71464;SDS011;59274;49.874;9.154;2023-04-03T01:54:50;6.23;;;2.77;;
71464;SDS011;59274;49.874;9.154;2023-04-03T01:57:15;6.72;;;2.88;;
71464;SDS011;59274;49.874;9.154;2023-04-03T01:59:41;6.90;;;2.67;;
71464;SDS011;59274;49.874;9.154;2023-04-03T02:02:07;6.45;;;3.13;;
71464;SDS011;59274;49.874;9.154;2023-04-03T02:04:33;5.27;;;2.50;;
71464;SDS011;59274;49.874;9.154;2023-04-03T02:06:58;5.88;;;2.67;;
71464;SDS011;59274;49.874;9.154;2023-04-03T02:09:24;6.32;;;2.88;;
71464;SDS011;59274;49.874;9.154;2023-04-03T02:11:49;6.33;;;3.27;;
71464;SDS011;59274;49.874;9.154;2023-04-03T02:14:15;6.40;;;2.83;;
71464;SDS011;59274;49.874;9.154;2023-04-03T02:16:40;5.50;;;2.83;;
71464;SDS011;59274;49.874;9.154;2023-04-03T02:19:05;7.00;;;3.05;;
71464;SDS011;59274;49.874;9.154;2023-04-03T02:21:31;6.53;;;2.93;;
71464;SDS011;59274;49.874;9.154;2023-04-03T02:23:56;5.93;;;2.57;;
71464;SDS011;59274;49.874;9.154;2023-04-03T02:26:25;5.25;;;2.60;;
71464;SDS011;59274;49.874;9.154;2023-04-03T02:28:51;6.13;;;2.60;;
71464;SDS011;59274;49.874;9.154;2023-04-03T02:31:16;5.50;;;2.70;;
71464;SDS011;59274;49.874;9.154;2023-04-03T02:33:42;6.53;;;2.60;;
71464;SDS011;59274;49.874;9.154;2023-04-03T02:36:28;6.85;;;3.00;;
71464;SDS011;59274;49.874;9.154;2023-04-03T02:38:53;6.60;;;3.00;;
71464;SDS011;59274;49.874;9.154;2023-04-03T02:41:19;7.88;;;2.92;;
71464;SDS011;59274;49.874;9.154;2023-04-03T02:43:46;8.20;;;3.37;;
71464;SDS011;59274;49.874;9.154;2023-04-03T02:46:11;7.68;;;3.25;;
71464;SDS011;59274;49.874;9.154;2023-04-03T02:48:39;7.40;;;3.03;;
71464;SDS011;59274;49.874;9.154;2023-04-03T02:51:04;6.03;;;2.75;;
71464;SDS011;59274;49.874;9.154;2023-04-03T02:53:30;6.75;;;3.45;;
71464;SDS011;59274;49.874;9.154;2023-04-03T02:55:55;6.67;;;3.50;;
71464;SDS011;59274;49.874;9.154;2023-04-03T02:58:20;6.43;;;3.20;;
71464;SDS011;59274;49.874;9.154;2023-04-03T03:00:46;7.07;;;3.20;;
71464;SDS011;59274;49.874;9.154;2023-04-03T03:03:11;6.93;;;2.80;;
71464;SDS011;59274;49.874;9.154;2023-04-03T03:05:38;6.40;;;3.05;;
71464;SDS011;59274;49.874;9.154;2023-04-03T03:08:03;6.70;;;3.03;;
71464;SDS011;59274;49.874;9.154;2023-04-03T03:10:29;6.15;;;3.00;;
71464;SDS011;59274;49.874;9.154;2023-04-03T03:12:55;6.90;;;2.80;;
71464;SDS011;59274;49.874;9.154;2023-04-03T03:15:20;7.85;;;3.15;;
71464;SDS011;59274;49.874;9.154;2023-04-03T03:17:46;6.97;;;2.93;;
71464;SDS011;59274;49.874;9.154;2023-04-03T03:20:12;7.50;;;2.97;;
71464;SDS011;59274;49.874;9.154;2023-04-03T03:22:40;6.30;;;3.05;;
71464;SDS011;59274;49.874;9.154;2023-04-03T03:25:06;8.67;;;3.37;;
71464;SDS011;59274;49.874;9.154;2023-04-03T03:27:31;7.10;;;3.35;;
71464;SDS011;59274;49.874;9.154;2023-04-03T03:29:57;6.47;;;3.33;;
71464;SDS011;59274;49.874;9.154;2023-04-03T03:32:22;7.70;;;3.20;;
71464;SDS011;59274;49.874;9.154;2023-04-03T03:34:48;6.65;;;3.38;;
71464;SDS011;59274;49.874;9.154;2023-04-03T03:37:13;9.27;;;3.80;;
71464;SDS011;59274;49.874;9.154;2023-04-03T03:39:39;7.67;;;3.40;;
71464;SDS011;59274;49.874;9.154;2023-04-03T03:42:04;8.43;;;3.70;;
71464;SDS011;59274;49.874;9.154;2023-04-03T03:44:30;8.73;;;3.73;;
71464;SDS011;59274;49.874;9.154;2023-04-03T03:46:55;10.07;;;3.50;;
71464;SDS011;59274;49.874;9.154;2023-04-03T03:49:21;7.35;;;3.33;;
71464;SDS011;59274;49.874;9.154;2023-04-03T03:51:46;8.33;;;3.57;;
71464;SDS011;59274;49.874;9.154;2023-04-03T03:54:12;7.60;;;3.23;;
71464;SDS011;59274;49.874;9.154;2023-04-03T03:56:38;8.02;;;3.63;;
71464;SDS011;59274;49.874;9.154;2023-04-03T03:59:04;8.25;;;3.85;;
71464;SDS011;59274;49.874;9.154;2023-04-03T04:01:30;7.68;;;3.60;;
71464;SDS011;59274;49.874;9.154;2023-04-03T04:03:56;9.67;;;3.90;;
71464;SDS011;59274;49.874;9.154;2023-04-03T04:06:21;8.88;;;3.63;;
71464;SDS011;59274;49.874;9.154;2023-04-03T04:08:47;9.43;;;3.92;;
71464;SDS011;59274;49.874;9.154;2023-04-03T04:11:12;9.17;;;4.23;;
71464;SDS011;59274;49.874;9.154;2023-04-03T04:13:38;9.13;;;4.70;;
71464;SDS011;59274;49.874;9.154;2023-04-03T04:16:03;11.20;;;4.65;;
71464;SDS011;59274;49.874;9.154;2023-04-03T04:18:30;11.20;;;5.20;;
71464;SDS011;59274;49.874;9.154;2023-04-03T04:20:55;8.43;;;4.72;;
71464;SDS011;59274;49.874;9.154;2023-04-03T04:23:21;8.73;;;3.97;;
71464;SDS011;59274;49.874;9.154;2023-04-03T04:25:49;11.23;;;4.50;;
71464;SDS011;59274;49.874;9.154;2023-04-03T04:28:15;8.77;;;4.28;;
71464;SDS011;59274;49.874;9.154;2023-04-03T04:30:41;8.23;;;4.40;;
71464;SDS011;59274;49.874;9.154;2023-04-03T04:33:06;8.10;;;4.20;;
71464;SDS011;59274;49.874;9.154;2023-04-03T04:35:32;8.80;;;4.00;;
71464;SDS011;59274;49.874;9.154;2023-04-03T04:37:58;8.98;;;4.13;;
71464;SDS011;59274;49.874;9.154;2023-04-03T04:40:23;9.97;;;3.50;;
71464;SDS011;59274;49.874;9.154;2023-04-03T04:42:49;7.88;;;3.95;;
71464;SDS011;59274;49.874;9.154;2023-04-03T04:45:14;7.63;;;3.87;;
71464;SDS011;59274;49.874;9.154;2023-04-03T04:47:40;8.77;;;3.40;;
71464;SDS011;59274;49.874;9.154;2023-04-03T04:50:06;7.43;;;3.47;;
71464;SDS011;59274;49.874;9.154;2023-04-03T04:52:32;6.88;;;3.45;;
71464;SDS011;59274;49.874;9.154;2023-04-03T04:54:57;8.83;;;3.50;;
71464;SDS011;59274;49.874;9.154;2023-04-03T04:57:23;6.50;;;3.10;;
71464;SDS011;59274;49.874;9.154;2023-04-03T04:59:48;8.20;;;3.60;;
71464;SDS011;59274;49.874;9.154;2023-04-03T05:02:13;9.83;;;3.60;;
71464;SDS011;59274;49.874;9.154;2023-04-03T05:04:39;7.97;;;3.45;;
71464;SDS011;59274;49.874;9.154;2023-04-03T05:07:04;9.33;;;3.70;;
71464;SDS011;59274;49.874;9.154;2023-04-03T05:09:30;8.10;;;3.30;;
71464;SDS011;59274;49.874;9.154;2023-04-03T05:11:55;8.93;;;3.30;;
71464;SDS011;59274;49.874;9.154;2023-04-03T05:14:21;7.93;;;3.05;;
71464;SDS011;59274;49.874;9.154;2023-04-03T05:16:47;8.00;;;3.30;;
71464;SDS011;59274;49.874;9.154;2023-04-03T05:19:12;5.87;;;2.40;;
71464;SDS011;59274;49.874;9.154;2023-04-03T05:21:38;8.05;;;3.67;;
71464;SDS011;59274;49.874;9.154;2023-04-03T05:24:03;9.27;;;3.30;;
71464;SDS011;59274;49.874;9.154;2023-04-03T05:26:30;9.93;;;4.47;;
71464;SDS011;59274;49.874;9.154;2023-04-03T05:28:56;7.07;;;2.58;;
71464;SDS011;59274;49.874;9.154;2023-04-03T05:31:23;8.10;;;3.17;;
71464;SDS011;59274;49.874;9.154;2023-04-03T05:33:48;11.93;;;3.70;;
71464;SDS011;59274;49.874;9.154;2023-04-03T05:36:14;6.27;;;2.40;;
71464;SDS011;59274;49.874;9.154;2023-04-03T05:38:39;6.23;;;2.10;;
71464;SDS011;59274;49.874;9.154;2023-04-03T05:41:05;7.10;;;2.25;;
71464;SDS011;59274;49.874;9.154;2023-04-03T05:43:30;7.30;;;3.23;;
71464;SDS011;59274;49.874;9.154;2023-04-03T05:45:56;5.28;;;2.38;;
71464;SDS011;59274;49.874;9.154;2023-04-03T05:48:21;6.10;;;2.42;;
71464;SDS011;59274;49.874;9.154;2023-04-03T05:50:47;6.43;;;3.07;;
71464;SDS011;59274;49.874;9.154;2023-04-03T05:53:15;7.73;;;2.37;;
71464;SDS011;59274;49.874;9.154;2023-04-03T05:55:46;5.68;;;2.13;;
71464;SDS011;59274;49.874;9.154;2023-04-03T05:58:14;6.55;;;2.25;;
71464;SDS011;59274;49.874;9.154;2023-04-03T06:00:39;6.67;;;1.93;;
71464;SDS011;59274;49.874;9.154;2023-04-03T06:03:05;8.53;;;2.50;;
71464;SDS011;59274;49.874;9.154;2023-04-03T06:05:31;4.85;;;1.70;;
71464;SDS011;59274;49.874;9.154;2023-04-03T06:07:57;6.57;;;2.03;;
71464;SDS011;59274;49.874;9.154;2023-04-03T06:10:22;8.13;;;2.77;;
71464;SDS011;59274;49.874;9.154;2023-04-03T06:12:48;8.50;;;2.67;;
71464;SDS011;59274;49.874;9.154;2023-04-03T06:15:13;8.48;;;2.60;;
71464;SDS011;59274;49.874;9.154;2023-04-03T06:17:40;8.33;;;2.43;;
71464;SDS011;59274;49.874;9.154;2023-04-03T06:20:06;7.47;;;1.70;;
71464;SDS011;59274;49.874;9.154;2023-04-03T06:22:32;4.13;;;1.80;;
71464;SDS011;59274;49.874;9.154;2023-04-03T06:24:58;5.75;;;2.28;;
71464;SDS011;59274;49.874;9.154;2023-04-03T06:27:23;5.80;;;2.00;;
71464;SDS011;59274;49.874;9.154;2023-04-03T06:29:49;7.30;;;2.80;;
71464;SDS011;59274;49.874;9.154;2023-04-03T06:32:15;3.10;;;1.60;;
71464;SDS011;59274;49.874;9.154;2023-04-03T06:34:41;4.57;;;1.70;;
71464;SDS011;59274;49.874;9.154;2023-04-03T06:37:10;6.37;;;2.17;;
71464;SDS011;59274;49.874;9.154;2023-04-03T06:39:40;7.65;;;2.28;;
71464;SDS011;59274;49.874;9.154;2023-04-03T06:42:06;6.15;;;2.05;;
71464;SDS011;59274;49.874;9.154;2023-04-03T06:44:32;5.53;;;1.93;;
71464;SDS011;59274;49.874;9.154;2023-04-03T06:46:59;8.95;;;2.40;;
71464;SDS011;59274;49.874;9.154;2023-04-03T06:49:25;13.80;;;3.77;;
71464;SDS011;59274;49.874;9.154;2023-04-03T06:51:51;8.85;;;2.70;;
71464;SDS011;59274;49.874;9.154;2023-04-03T06:54:16;4.00;;;1.73;;
71464;SDS011;59274;49.874;9.154;2023-04-03T06:56:42;4.45;;;1.58;;
71464;SDS011;59274;49.874;9.154;2023-04-03T06:59:08;7.73;;;2.00;;
71464;SDS011;59274;49.874;9.154;2023-04-03T07:01:34;5.68;;;1.98;;
71464;SDS011;59274;49.874;9.154;2023-04-03T07:04:00;6.60;;;1.97;;
71464;SDS011;59274;49.874;9.154;2023-04-03T07:06:25;4.77;;;1.87;;
71464;SDS011;59274;49.874;9.154;2023-04-03T07:08:54;7.65;;;2.10;;
71464;SDS011;59274;49.874;9.154;2023-04-03T07:11:20;6.95;;;1.92;;
71464;SDS011;59274;49.874;9.154;2023-04-03T07:13:46;6.88;;;1.80;;
71464;SDS011;59274;49.874;9.154;2023-04-03T07:16:11;5.20;;;1.57;;
71464;SDS011;59274;49.874;9.154;2023-04-03T07:18:37;6.13;;;1.83;;
71464;SDS011;59274;49.874;9.154;2023-04-03T07:21:03;4.65;;;1.70;;
71464;SDS011;59274;49.874;9.154;2023-04-03T07:23:29;6.73;;;2.10;;
71464;SDS011;59274;49.874;9.154;2023-04-03T07:25:54;4.50;;;1.50;;
71464;SDS011;59274;49.874;9.154;2023-04-03T07:28:21;5.00;;;1.80;;
71464;SDS011;59274;49.874;9.154;2023-04-03T07:30:51;5.37;;;1.70;;
71464;SDS011;59274;49.874;9.154;2023-04-03T07:33:25;5.70;;;1.70;;
71464;SDS011;59274;49.874;9.154;2023-04-03T07:35:51;6.32;;;1.63;;
71464;SDS011;59274;49.874;9.154;2023-04-03T07:38:16;5.97;;;1.90;;
71464;SDS011;59274;49.874;9.154;2023-04-03T07:40:49;4.00;;;1.70;;
71464;SDS011;59274;49.874;9.154;2023-04-03T07:43:17;3.50;;;1.80;;
71464;SDS011;59274;49.874;9.154;2023-04-03T07:45:43;5.75;;;1.63;;
71464;SDS011;59274;49.874;9.154;2023-04-03T07:48:09;4.72;;;1.70;;
71464;SDS011;59274;49.874;9.154;2023-04-03T07:50:36;3.50;;;1.40;;
71464;SDS011;59274;49.874;9.154;2023-04-03T07:53:02;3.67;;;1.38;;
71464;SDS011;59274;49.874;9.154;2023-04-03T07:55:28;4.80;;;1.90;;
71464;SDS011;59274;49.874;9.154;2023-04-03T07:57:53;3.33;;;1.50;;
71464;SDS011;59274;49.874;9.154;2023-04-03T08:00:20;7.70;;;2.00;;
71464;SDS011;59274;49.874;9.154;2023-04-03T08:02:46;4.80;;;1.70;;
71464;SDS011;59274;49.874;9.154;2023-04-03T08:05:19;4.32;;;1.88;;
71464;SDS011;59274;49.874;9.154;2023-04-03T08:07:46;5.10;;;1.93;;
71464;SDS011;59274;49.874;9.154;2023-04-03T08:10:15;5.55;;;1.60;;
71464;SDS011;59274;49.874;9.154;2023-04-03T08:12:41;4.53;;;1.45;;
71464;SDS011;59274;49.874;9.154;2023-04-03T08:15:07;4.47;;;1.70;;
71464;SDS011;59274;49.874;9.154;2023-04-03T08:17:33;3.63;;;1.60;;
71464;SDS011;59274;49.874;9.154;2023-04-03T08:19:59;2.95;;;1.20;;
71464;SDS011;59274;49.874;9.154;2023-04-03T08:22:25;5.05;;;1.50;;
71464;SDS011;59274;49.874;9.154;2023-04-03T08:24:51;5.53;;;1.80;;
71464;SDS011;59274;49.874;9.154;2023-04-03T08:27:17;3.40;;;1.67;;
71464;SDS011;59274;49.874;9.154;2023-04-03T08:29:42;3.07;;;1.30;;
71464;SDS011;59274;49.874;9.154;2023-04-03T08:32:07;6.93;;;1.50;;
71464;SDS011;59274;49.874;9.154;2023-04-03T08:34:33;5.85;;;1.80;;
71464;SDS011;59274;49.874;9.154;2023-04-03T08:37:00;4.70;;;1.45;;
71464;SDS011;59274;49.874;9.154;2023-04-03T08:39:26;4.13;;;1.30;;
71464;SDS011;59274;49.874;9.154;2023-04-03T08:41:52;2.72;;;1.42;;
71464;SDS011;59274;49.874;9.154;2023-04-03T08:49:55;3.13;;;1.20;;
71464;SDS011;59274;49.874;9.154;2023-04-03T08:52:34;6.43;;;1.20;;
71464;SDS011;59274;49.874;9.154;2023-04-03T08:58:15;3.35;;;1.17;;
71464;SDS011;59274;49.874;9.154;2023-04-03T09:00:49;3.47;;;1.33;;
71464;SDS011;59274;49.874;9.154;2023-04-03T09:03:16;4.32;;;1.40;;
71464;SDS011;59274;49.874;9.154;2023-04-03T09:08:29;4.53;;;1.40;;
71464;SDS011;59274;49.874;9.154;2023-04-03T09:11:04;5.05;;;1.35;;
71464;SDS011;59274;49.874;9.154;2023-04-03T09:19:11;4.40;;;1.60;;
71464;SDS011;59274;49.874;9.154;2023-04-03T09:22:25;5.03;;;1.58;;
71464;SDS011;59274;49.874;9.154;2023-04-03T09:27:37;5.00;;;1.57;;
71464;SDS011;59274;49.874;9.154;2023-04-03T09:30:02;4.47;;;1.55;;
71464;SDS011;59274;49.874;9.154;2023-04-03T09:32:29;4.80;;;1.40;;
71464;SDS011;59274;49.874;9.154;2023-04-03T09:34:58;4.77;;;1.40;;
71464;SDS011;59274;49.874;9.154;2023-04-03T09:37:39;4.28;;;1.30;;
71464;SDS011;59274;49.874;9.154;2023-04-03T09:40:05;4.35;;;1.40;;
71464;SDS011;59274;49.874;9.154;2023-04-03T09:43:37;4.88;;;1.55;;
71464;SDS011;59274;49.874;9.154;2023-04-03T09:45:44;2.42;;;1.35;;
71464;SDS011;59274;49.874;9.154;2023-04-03T09:56:25;3.88;;;1.30;;
71464;SDS011;59274;49.874;9.154;2023-04-03T10:06:40;3.88;;;1.45;;
71464;SDS011;59274;49.874;9.154;2023-04-03T10:09:24;4.70;;;1.40;;
71464;SDS011;59274;49.874;9.154;2023-04-03T10:12:00;5.97;;;1.70;;
71464;SDS011;59274;49.874;9.154;2023-04-03T10:14:35;3.13;;;1.27;;
71464;SDS011;59274;49.874;9.154;2023-04-03T10:23:28;4.15;;;1.80;;
71464;SDS011;59274;49.874;9.154;2023-04-03T10:32:02;2.80;;;1.40;;
71464;SDS011;59274;49.874;9.154;2023-04-03T10:34:44;4.00;;;1.60;;
71464;SDS011;59274;49.874;9.154;2023-04-03T10:37:17;6.05;;;1.83;;
71464;SDS011;59274;49.874;9.154;2023-04-03T10:42:50;4.03;;;1.63;;
71464;SDS011;59274;49.874;9.154;2023-04-03T10:45:31;3.08;;;1.40;;
71464;SDS011;59274;49.874;9.154;2023-04-03T10:48:54;6.75;;;2.70;;
71464;SDS011;59274;49.874;9.154;2023-04-03T10:57:03;6.23;;;1.70;;
71464;SDS011;59274;49.874;9.154;2023-04-03T10:59:32;7.78;;;2.40;;
71464;SDS011;59274;49.874;9.154;2023-04-03T11:04:38;7.13;;;2.00;;
71464;SDS011;59274;49.874;9.154;2023-04-03T11:12:47;4.78;;;1.88;;
71464;SDS011;59274;49.874;9.154;2023-04-03T11:15:18;3.42;;;1.60;;
71464;SDS011;59274;49.874;9.154;2023-04-03T11:17:51;5.97;;;1.63;;
71464;SDS011;59274;49.874;9.154;2023-04-03T11:20:22;6.22;;;1.70;;
71464;SDS011;59274;49.874;9.154;2023-04-03T11:22:57;5.60;;;1.70;;
71464;SDS011;59274;49.874;9.154;2023-04-03T11:25:26;5.07;;;1.85;;
71464;SDS011;59274;49.874;9.154;2023-04-03T11:28:04;4.45;;;1.80;;
71464;SDS011;59274;49.874;9.154;2023-04-03T11:38:38;3.03;;;1.40;;
71464;SDS011;59274;49.874;9.154;2023-04-03T11:41:09;6.03;;;1.70;;
71464;SDS011;59274;49.874;9.154;2023-04-03T11:43:41;5.03;;;1.65;;
71464;SDS011;59274;49.874;9.154;2023-04-03T11:46:20;4.93;;;1.73;;
71464;SDS011;59274;49.874;9.154;2023-04-03T11:48:47;4.90;;;1.80;;
71464;SDS011;59274;49.874;9.154;2023-04-03T11:53:43;3.33;;;1.67;;
71464;SDS011;59274;49.874;9.154;2023-04-03T12:01:44;5.00;;;1.60;;
71464;SDS011;59274;49.874;9.154;2023-04-03T12:04:10;4.97;;;1.40;;
71464;SDS011;59274;49.874;9.154;2023-04-03T12:09:22;4.60;;;1.70;;
71464;SDS011;59274;49.874;9.154;2023-04-03T12:11:50;6.05;;;1.70;;
71464;SDS011;59274;49.874;9.154;2023-04-03T12:14:16;3.75;;;1.60;;
71464;SDS011;59274;49.874;9.154;2023-04-03T12:16:44;5.47;;;1.80;;
71464;SDS011;59274;49.874;9.154;2023-04-03T12:26:50;4.37;;;1.60;;
71464;SDS011;59274;49.874;9.154;2023-04-03T12:31:47;4.30;;;1.43;;
71464;SDS011;59274;49.874;9.154;2023-04-03T12:39:58;4.85;;;1.90;;
71464;SDS011;59274;49.874;9.154;2023-04-03T12:45:26;5.70;;;1.83;;
71464;SDS011;59274;49.874;9.154;2023-04-03T12:47:53;3.55;;;1.40;;
71464;SDS011;59274;49.874;9.154;2023-04-03T12:53:00;2.92;;;1.45;;
71464;SDS011;59274;49.874;9.154;2023-04-03T12:55:31;4.33;;;1.40;;
71464;SDS011;59274;49.874;9.154;2023-04-03T12:57:56;4.18;;;1.52;;
71464;SDS011;59274;49.874;9.154;2023-04-03T13:02:57;4.10;;;1.50;;
71464;SDS011;59274;49.874;9.154;2023-04-03T13:05:23;4.32;;;1.95;;
71464;SDS011;59274;49.874;9.154;2023-04-03T13:07:49;4.50;;;1.60;;
71464;SDS011;59274;49.874;9.154;2023-04-03T13:10:22;3.00;;;1.40;;
71464;SDS011;59274;49.874;9.154;2023-04-03T13:12:57;3.70;;;1.60;;
71464;SDS011;59274;49.874;9.154;2023-04-03T13:15:40;3.80;;;1.30;;
71464;SDS011;59274;49.874;9.154;2023-04-03T13:18:28;3.33;;;1.52;;
71464;SDS011;59274;49.874;9.154;2023-04-03T13:20:57;4.32;;;1.40;;
71464;SDS011;59274;49.874;9.154;2023-04-03T13:23:33;4.68;;;1.42;;
71464;SDS011;59274;49.874;9.154;2023-04-03T13:26:01;4.17;;;1.37;;
71464;SDS011;59274;49.874;9.154;2023-04-03T13:28:28;3.25;;;1.30;;
71464;SDS011;59274;49.874;9.154;2023-04-03T13:33:25;3.05;;;1.10;;
71464;SDS011;59274;49.874;9.154;2023-04-03T13:35:56;4.35;;;1.83;;
71464;SDS011;59274;49.874;9.154;2023-04-03T13:38:29;2.87;;;1.27;;
71464;SDS011;59274;49.874;9.154;2023-04-03T13:40:59;3.42;;;1.30;;
71464;SDS011;59274;49.874;9.154;2023-04-03T13:43:30;4.85;;;1.52;;
71464;SDS011;59274;49.874;9.154;2023-04-03T13:48:42;3.92;;;1.40;;
71464;SDS011;59274;49.874;9.154;2023-04-03T13:53:42;3.38;;;1.48;;
71464;SDS011;59274;49.874;9.154;2023-04-03T13:56:16;4.32;;;1.50;;
71464;SDS011;59274;49.874;9.154;2023-04-03T14:04:20;4.73;;;1.30;;
71464;SDS011;59274;49.874;9.154;2023-04-03T14:06:47;4.45;;;1.60;;
71464;SDS011;59274;49.874;9.154;2023-04-03T14:09:13;4.43;;;1.83;;
71464;SDS011;59274;49.874;9.154;2023-04-03T14:11:40;3.40;;;1.30;;
71464;SDS011;59274;49.874;9.154;2023-04-03T14:14:17;3.67;;;1.40;;
71464;SDS011;59274;49.874;9.154;2023-04-03T14:16:46;4.72;;;1.90;;
71464;SDS011;59274;49.874;9.154;2023-04-03T14:19:17;5.10;;;1.85;;
71464;SDS011;59274;49.874;9.154;2023-04-03T14:21:46;6.47;;;1.90;;
71464;SDS011;59274;49.874;9.154;2023-04-03T14:24:12;2.57;;;1.30;;
71464;SDS011;59274;49.874;9.154;2023-04-03T14:26:38;3.80;;;1.58;;
71464;SDS011;59274;49.874;9.154;2023-04-03T14:29:03;4.27;;;1.80;;
71464;SDS011;59274;49.874;9.154;2023-04-03T14:31:29;3.47;;;1.80;;
71464;SDS011;59274;49.874;9.154;2023-04-03T14:33:55;3.60;;;1.93;;
71464;SDS011;59274;49.874;9.154;2023-04-03T14:36:21;4.03;;;1.80;;
71464;SDS011;59274;49.874;9.154;2023-04-03T14:38:50;5.40;;;2.10;;
71464;SDS011;59274;49.874;9.154;2023-04-03T14:41:18;4.82;;;1.98;;
71464;SDS011;59274;49.874;9.154;2023-04-03T14:43:45;4.43;;;2.10;;
71464;SDS011;59274;49.874;9.154;2023-04-03T14:46:13;5.20;;;2.20;;
71464;SDS011;59274;49.874;9.154;2023-04-03T14:48:43;4.63;;;1.70;;
71464;SDS011;59274;49.874;9.154;2023-04-03T14:51:13;4.63;;;1.85;;
71464;SDS011;59274;49.874;9.154;2023-04-03T14:53:40;4.20;;;1.70;;
71464;SDS011;59274;49.874;9.154;2023-04-03T14:56:11;8.40;;;5.00;;
71464;SDS011;59274;49.874;9.154;2023-04-03T14:58:39;5.57;;;2.58;;
71464;SDS011;59274;49.874;9.154;2023-04-03T15:01:04;3.57;;;1.80;;
71464;SDS011;59274;49.874;9.154;2023-04-03T15:03:30;6.70;;;2.80;;
71464;SDS011;59274;49.874;9.154;2023-04-03T15:05:55;4.87;;;2.10;;
71464;SDS011;59274;49.874;9.154;2023-04-03T15:08:21;4.78;;;2.35;;
71464;SDS011;59274;49.874;9.154;2023-04-03T15:10:50;5.20;;;2.67;;
71464;SDS011;59274;49.874;9.154;2023-04-03T15:13:18;4.15;;;1.80;;
71464;SDS011;59274;49.874;9.154;2023-04-03T15:15:44;4.57;;;2.33;;
71464;SDS011;59274;49.874;9.154;2023-04-03T15:18:15;6.07;;;2.25;;
71464;SDS011;59274;49.874;9.154;2023-04-03T15:20:45;7.05;;;2.40;;
71464;SDS011;59274;49.874;9.154;2023-04-03T15:23:14;7.13;;;2.40;;
71464;SDS011;59274;49.874;9.154;2023-04-03T15:25:41;5.60;;;2.75;;
71464;SDS011;59274;49.874;9.154;2023-04-03T15:31:00;6.18;;;2.80;;
71464;SDS011;59274;49.874;9.154;2023-04-03T15:33:26;4.03;;;2.10;;
71464;SDS011;59274;49.874;9.154;2023-04-03T15:35:52;4.50;;;2.30;;
71464;SDS011;59274;49.874;9.154;2023-04-03T15:38:18;4.95;;;2.10;;
71464;SDS011;59274;49.874;9.154;2023-04-03T15:40:43;4.37;;;2.13;;
71464;SDS011;59274;49.874;9.154;2023-04-03T15:43:09;4.07;;;2.10;;
71464;SDS011;59274;49.874;9.154;2023-04-03T15:45:35;5.80;;;2.10;;
71464;SDS011;59274;49.874;9.154;2023-04-03T15:48:02;5.32;;;2.33;;
71464;SDS011;59274;49.874;9.154;2023-04-03T15:50:29;5.33;;;2.13;;
71464;SDS011;59274;49.874;9.154;2023-04-03T15:52:55;5.70;;;2.80;;
71464;SDS011;59274;49.874;9.154;2023-04-03T15:55:23;4.20;;;2.35;;
71464;SDS011;59274;49.874;9.154;2023-04-03T15:57:49;5.85;;;2.55;;
71464;SDS011;59274;49.874;9.154;2023-04-03T16:00:15;5.78;;;2.42;;
71464;SDS011;59274;49.874;9.154;2023-04-03T16:02:42;6.50;;;2.80;;
71464;SDS011;59274;49.874;9.154;2023-04-03T16:05:09;12.37;;;6.50;;
71464;SDS011;59274;49.874;9.154;2023-04-03T16:07:36;10.57;;;5.13;;
71464;SDS011;59274;49.874;9.154;2023-04-03T16:10:03;7.43;;;3.63;;
71464;SDS011;59274;49.874;9.154;2023-04-03T16:12:30;7.47;;;3.38;;
71464;SDS011;59274;49.874;9.154;2023-04-03T16:14:55;5.97;;;2.60;;
71464;SDS011;59274;49.874;9.154;2023-04-03T16:17:21;8.77;;;4.17;;
71464;SDS011;59274;49.874;9.154;2023-04-03T16:19:46;11.32;;;4.80;;
71464;SDS011;59274;49.874;9.154;2023-04-03T16:22:12;8.27;;;3.40;;
71464;SDS011;59274;49.874;9.154;2023-04-03T16:24:37;10.03;;;4.87;;
71464;SDS011;59274;49.874;9.154;2023-04-03T16:27:03;16.85;;;7.88;;
71464;SDS011;59274;49.874;9.154;2023-04-03T16:29:29;31.40;;;14.10;;
71464;SDS011;59274;49.874;9.154;2023-04-03T16:31:54;11.57;;;5.93;;
71464;SDS011;59274;49.874;9.154;2023-04-03T16:34:21;12.87;;;6.60;;
71464;SDS011;59274;49.874;9.154;2023-04-03T16:36:46;15.07;;;8.00;;
71464;SDS011;59274;49.874;9.154;2023-04-03T16:39:12;15.07;;;8.03;;
71464;SDS011;59274;49.874;9.154;2023-04-03T16:41:37;16.80;;;7.07;;
71464;SDS011;59274;49.874;9.154;2023-04-03T16:44:03;5.50;;;2.13;;
71464;SDS011;59274;49.874;9.154;2023-04-03T16:46:28;11.55;;;6.18;;
71464;SDS011;59274;49.874;9.154;2023-04-03T16:48:53;4.57;;;2.63;;
71464;SDS011;59274;49.874;9.154;2023-04-03T16:51:19;4.90;;;2.60;;
71464;SDS011;59274;49.874;9.154;2023-04-03T16:53:44;6.28;;;3.00;;
71464;SDS011;59274;49.874;9.154;2023-04-03T16:56:10;5.60;;;2.40;;
71464;SDS011;59274;49.874;9.154;2023-04-03T16:58:35;6.53;;;2.87;;
71464;SDS011;59274;49.874;9.154;2023-04-03T17:01:15;6.13;;;2.93;;
71464;SDS011;59274;49.874;9.154;2023-04-03T17:03:42;5.25;;;2.47;;